sensor_id;sensor_type;location;lat;lon;timestamp;P1;durP1;ratioP1;P2;durP2;ratioP2
57947;SDS011;43754;56.992;24.292;2023-07-24T00:02:19;3.35;;;2.67;;
57947;SDS011;43754;56.992;24.292;2023-07-24T00:04:51;3.45;;;2.80;;
57947;SDS011;43754;56.992;24.292;2023-07-24T00:07:25;4.95;;;3.20;;
57947;SDS011;43754;56.992;24.292;2023-07-24T00:09:57;4.72;;;3.38;;
57947;SDS011;43754;56.992;24.292;2023-07-24T00:12:29;3.67;;;2.70;;
57947;SDS011;43754;56.992;24.292;2023-07-24T00:15:01;4.80;;;3.08;;
57947;SDS011;43754;56.992;24.292;2023-07-24T00:17:34;6.20;;;3.92;;
57947;SDS011;43754;56.992;24.292;2023-07-24T00:20:06;3.70;;;3.03;;
57947;SDS011;43754;56.992;24.292;2023-07-24T00:22:41;4.70;;;2.92;;
57947;SDS011;43754;56.992;24.292;2023-07-24T00:25:13;7.32;;;3.35;;
57947;SDS011;43754;56.992;24.292;2023-07-24T00:27:45;4.75;;;3.78;;
57947;SDS011;43754;56.992;24.292;2023-07-24T00:30:17;5.72;;;3.60;;
57947;SDS011;43754;56.992;24.292;2023-07-24T00:32:49;5.35;;;3.38;;
57947;SDS011;43754;56.992;24.292;2023-07-24T00:35:21;5.50;;;3.15;;
57947;SDS011;43754;56.992;24.292;2023-07-24T00:37:55;6.20;;;3.53;;
57947;SDS011;43754;56.992;24.292;2023-07-24T00:40:29;6.03;;;3.40;;
57947;SDS011;43754;56.992;24.292;2023-07-24T00:43:01;6.68;;;4.00;;
57947;SDS011;43754;56.992;24.292;2023-07-24T00:45:33;8.15;;;4.63;;
57947;SDS011;43754;56.992;24.292;2023-07-24T00:48:05;5.25;;;4.03;;
57947;SDS011;43754;56.992;24.292;2023-07-24T00:50:37;4.93;;;3.85;;
57947;SDS011;43754;56.992;24.292;2023-07-24T00:53:12;6.35;;;3.80;;
57947;SDS011;43754;56.992;24.292;2023-07-24T00:55:45;5.93;;;3.72;;
57947;SDS011;43754;56.992;24.292;2023-07-24T00:58:17;6.32;;;3.85;;
57947;SDS011;43754;56.992;24.292;2023-07-24T01:00:51;5.97;;;4.03;;
57947;SDS011;43754;56.992;24.292;2023-07-24T01:03:24;6.93;;;4.70;;
57947;SDS011;43754;56.992;24.292;2023-07-24T01:06:03;4.53;;;3.78;;
57947;SDS011;43754;56.992;24.292;2023-07-24T01:08:37;5.60;;;3.97;;
57947;SDS011;43754;56.992;24.292;2023-07-24T01:11:10;8.30;;;5.18;;
57947;SDS011;43754;56.992;24.292;2023-07-24T01:13:48;7.85;;;5.05;;
57947;SDS011;43754;56.992;24.292;2023-07-24T01:16:30;5.78;;;4.90;;
57947;SDS011;43754;56.992;24.292;2023-07-24T01:21:51;7.35;;;4.63;;
57947;SDS011;43754;56.992;24.292;2023-07-24T01:24:36;5.50;;;4.88;;
57947;SDS011;43754;56.992;24.292;2023-07-24T01:27:20;6.07;;;4.60;;
57947;SDS011;43754;56.992;24.292;2023-07-24T01:29:52;5.43;;;4.30;;
57947;SDS011;43754;56.992;24.292;2023-07-24T01:32:25;4.68;;;4.22;;
57947;SDS011;43754;56.992;24.292;2023-07-24T01:34:57;7.43;;;5.10;;
57947;SDS011;43754;56.992;24.292;2023-07-24T01:37:29;6.95;;;4.68;;
57947;SDS011;43754;56.992;24.292;2023-07-24T01:40:03;4.43;;;4.00;;
57947;SDS011;43754;56.992;24.292;2023-07-24T01:42:37;6.10;;;4.95;;
57947;SDS011;43754;56.992;24.292;2023-07-24T01:45:10;9.15;;;4.75;;
57947;SDS011;43754;56.992;24.292;2023-07-24T01:47:43;7.75;;;5.28;;
57947;SDS011;43754;56.992;24.292;2023-07-24T01:50:15;5.13;;;4.43;;
57947;SDS011;43754;56.992;24.292;2023-07-24T01:52:47;6.15;;;4.88;;
57947;SDS011;43754;56.992;24.292;2023-07-24T01:55:19;11.77;;;6.60;;
57947;SDS011;43754;56.992;24.292;2023-07-24T01:57:52;5.32;;;4.10;;
57947;SDS011;43754;56.992;24.292;2023-07-24T02:00:25;7.30;;;4.72;;
57947;SDS011;43754;56.992;24.292;2023-07-24T02:03:02;6.97;;;4.97;;
57947;SDS011;43754;56.992;24.292;2023-07-24T02:05:35;10.25;;;5.88;;
57947;SDS011;43754;56.992;24.292;2023-07-24T02:08:07;8.07;;;3.85;;
57947;SDS011;43754;56.992;24.292;2023-07-24T02:10:39;5.97;;;4.25;;
57947;SDS011;43754;56.992;24.292;2023-07-24T02:13:12;7.38;;;4.95;;
57947;SDS011;43754;56.992;24.292;2023-07-24T02:15:52;6.00;;;5.10;;
57947;SDS011;43754;56.992;24.292;2023-07-24T02:18:25;4.65;;;4.10;;
57947;SDS011;43754;56.992;24.292;2023-07-24T02:20:57;4.45;;;4.00;;
57947;SDS011;43754;56.992;24.292;2023-07-24T02:23:29;6.22;;;4.97;;
57947;SDS011;43754;56.992;24.292;2023-07-24T02:26:01;8.77;;;5.45;;
57947;SDS011;43754;56.992;24.292;2023-07-24T02:28:35;6.72;;;5.65;;
57947;SDS011;43754;56.992;24.292;2023-07-24T02:31:07;5.40;;;4.57;;
57947;SDS011;43754;56.992;24.292;2023-07-24T02:33:39;6.22;;;5.00;;
57947;SDS011;43754;56.992;24.292;2023-07-24T02:36:11;4.80;;;4.15;;
57947;SDS011;43754;56.992;24.292;2023-07-24T02:38:45;7.18;;;5.05;;
57947;SDS011;43754;56.992;24.292;2023-07-24T02:41:17;8.98;;;6.03;;
57947;SDS011;43754;56.992;24.292;2023-07-24T02:43:50;7.03;;;5.82;;
57947;SDS011;43754;56.992;24.292;2023-07-24T02:46:23;11.55;;;5.82;;
57947;SDS011;43754;56.992;24.292;2023-07-24T02:48:56;7.78;;;5.97;;
57947;SDS011;43754;56.992;24.292;2023-07-24T02:51:28;10.32;;;6.80;;
57947;SDS011;43754;56.992;24.292;2023-07-24T02:54:00;7.40;;;6.53;;
57947;SDS011;43754;56.992;24.292;2023-07-24T02:56:32;9.50;;;7.38;;
57947;SDS011;43754;56.992;24.292;2023-07-24T02:59:05;8.30;;;7.13;;
57947;SDS011;43754;56.992;24.292;2023-07-24T03:01:37;9.07;;;6.90;;
57947;SDS011;43754;56.992;24.292;2023-07-24T03:04:10;9.63;;;7.97;;
57947;SDS011;43754;56.992;24.292;2023-07-24T03:06:42;9.20;;;6.93;;
57947;SDS011;43754;56.992;24.292;2023-07-24T03:09:14;7.32;;;5.50;;
57947;SDS011;43754;56.992;24.292;2023-07-24T03:11:46;7.32;;;6.35;;
57947;SDS011;43754;56.992;24.292;2023-07-24T03:14:20;8.98;;;6.80;;
57947;SDS011;43754;56.992;24.292;2023-07-24T03:16:52;7.93;;;6.70;;
57947;SDS011;43754;56.992;24.292;2023-07-24T03:19:24;9.98;;;7.45;;
57947;SDS011;43754;56.992;24.292;2023-07-24T03:21:56;8.38;;;6.53;;
57947;SDS011;43754;56.992;24.292;2023-07-24T03:24:28;7.95;;;7.07;;
57947;SDS011;43754;56.992;24.292;2023-07-24T03:27:00;7.75;;;5.40;;
57947;SDS011;43754;56.992;24.292;2023-07-24T03:29:34;8.63;;;6.15;;
57947;SDS011;43754;56.992;24.292;2023-07-24T03:32:06;7.90;;;5.65;;
57947;SDS011;43754;56.992;24.292;2023-07-24T03:34:39;10.48;;;6.80;;
57947;SDS011;43754;56.992;24.292;2023-07-24T03:37:11;7.78;;;6.70;;
57947;SDS011;43754;56.992;24.292;2023-07-24T03:39:43;8.20;;;6.07;;
57947;SDS011;43754;56.992;24.292;2023-07-24T03:42:23;6.97;;;6.28;;
57947;SDS011;43754;56.992;24.292;2023-07-24T03:44:59;7.25;;;5.70;;
57947;SDS011;43754;56.992;24.292;2023-07-24T03:47:31;8.38;;;5.50;;
57947;SDS011;43754;56.992;24.292;2023-07-24T03:50:03;6.72;;;5.53;;
57947;SDS011;43754;56.992;24.292;2023-07-24T03:52:36;7.43;;;5.10;;
57947;SDS011;43754;56.992;24.292;2023-07-24T03:55:08;6.63;;;5.30;;
57947;SDS011;43754;56.992;24.292;2023-07-24T03:57:42;9.80;;;5.88;;
57947;SDS011;43754;56.992;24.292;2023-07-24T04:00:15;7.43;;;5.82;;
57947;SDS011;43754;56.992;24.292;2023-07-24T04:02:50;7.75;;;5.78;;
57947;SDS011;43754;56.992;24.292;2023-07-24T04:05:22;9.95;;;6.90;;
57947;SDS011;43754;56.992;24.292;2023-07-24T04:07:54;9.52;;;6.43;;
57947;SDS011;43754;56.992;24.292;2023-07-24T04:10:26;5.85;;;5.15;;
57947;SDS011;43754;56.992;24.292;2023-07-24T04:12:59;8.05;;;5.40;;
57947;SDS011;43754;56.992;24.292;2023-07-24T04:15:32;13.68;;;7.57;;
57947;SDS011;43754;56.992;24.292;2023-07-24T04:18:04;12.00;;;7.00;;
57947;SDS011;43754;56.992;24.292;2023-07-24T04:20:36;10.32;;;8.77;;
57947;SDS011;43754;56.992;24.292;2023-07-24T04:23:08;14.20;;;8.70;;
57947;SDS011;43754;56.992;24.292;2023-07-24T04:25:40;8.98;;;7.72;;
57947;SDS011;43754;56.992;24.292;2023-07-24T04:28:12;12.73;;;10.65;;
57947;SDS011;43754;56.992;24.292;2023-07-24T04:30:46;10.50;;;6.97;;
57947;SDS011;43754;56.992;24.292;2023-07-24T04:33:18;11.70;;;7.45;;
57947;SDS011;43754;56.992;24.292;2023-07-24T04:35:50;13.38;;;11.07;;
57947;SDS011;43754;56.992;24.292;2023-07-24T04:38:22;8.50;;;7.65;;
57947;SDS011;43754;56.992;24.292;2023-07-24T04:40:54;11.15;;;8.63;;
57947;SDS011;43754;56.992;24.292;2023-07-24T04:43:26;9.98;;;8.75;;
57947;SDS011;43754;56.992;24.292;2023-07-24T04:46:00;13.07;;;8.18;;
57947;SDS011;43754;56.992;24.292;2023-07-24T04:48:32;10.55;;;8.90;;
57947;SDS011;43754;56.992;24.292;2023-07-24T04:51:04;10.20;;;7.68;;
57947;SDS011;43754;56.992;24.292;2023-07-24T04:53:36;10.50;;;8.90;;
57947;SDS011;43754;56.992;24.292;2023-07-24T04:56:08;9.10;;;7.82;;
57947;SDS011;43754;56.992;24.292;2023-07-24T04:58:40;9.00;;;7.85;;
57947;SDS011;43754;56.992;24.292;2023-07-24T05:01:13;7.03;;;6.25;;
57947;SDS011;43754;56.992;24.292;2023-07-24T05:03:45;9.07;;;6.47;;
57947;SDS011;43754;56.992;24.292;2023-07-24T05:06:17;7.03;;;6.22;;
57947;SDS011;43754;56.992;24.292;2023-07-24T05:08:49;8.05;;;5.93;;
57947;SDS011;43754;56.992;24.292;2023-07-24T05:11:21;8.38;;;6.30;;
57947;SDS011;43754;56.992;24.292;2023-07-24T05:13:53;9.90;;;5.95;;
57947;SDS011;43754;56.992;24.292;2023-07-24T05:16:27;9.68;;;6.25;;
57947;SDS011;43754;56.992;24.292;2023-07-24T05:18:59;7.40;;;5.18;;
57947;SDS011;43754;56.992;24.292;2023-07-24T05:21:32;5.00;;;4.50;;
57947;SDS011;43754;56.992;24.292;2023-07-24T05:24:04;5.65;;;4.80;;
57947;SDS011;43754;56.992;24.292;2023-07-24T05:26:36;5.05;;;4.00;;
57947;SDS011;43754;56.992;24.292;2023-07-24T05:29:08;4.70;;;4.30;;
57947;SDS011;43754;56.992;24.292;2023-07-24T05:31:41;5.65;;;4.80;;
57947;SDS011;43754;56.992;24.292;2023-07-24T05:34:14;5.90;;;4.20;;
57947;SDS011;43754;56.992;24.292;2023-07-24T05:36:46;7.03;;;4.55;;
57947;SDS011;43754;56.992;24.292;2023-07-24T05:39:18;4.85;;;3.90;;
57947;SDS011;43754;56.992;24.292;2023-07-24T05:41:50;4.97;;;4.28;;
57947;SDS011;43754;56.992;24.292;2023-07-24T05:44:22;4.75;;;4.30;;
57947;SDS011;43754;56.992;24.292;2023-07-24T05:46:55;8.57;;;4.50;;
57947;SDS011;43754;56.992;24.292;2023-07-24T05:49:27;5.00;;;4.32;;
57947;SDS011;43754;56.992;24.292;2023-07-24T05:51:59;5.97;;;4.43;;
57947;SDS011;43754;56.992;24.292;2023-07-24T05:54:32;4.57;;;4.15;;
57947;SDS011;43754;56.992;24.292;2023-07-24T05:57:04;6.60;;;4.03;;
57947;SDS011;43754;56.992;24.292;2023-07-24T05:59:36;6.88;;;4.05;;
57947;SDS011;43754;56.992;24.292;2023-07-24T06:02:10;5.97;;;3.75;;
57947;SDS011;43754;56.992;24.292;2023-07-24T06:04:42;7.63;;;4.60;;
57947;SDS011;43754;56.992;24.292;2023-07-24T06:07:14;6.68;;;4.50;;
57947;SDS011;43754;56.992;24.292;2023-07-24T06:09:46;6.72;;;4.68;;
57947;SDS011;43754;56.992;24.292;2023-07-24T06:12:18;5.97;;;4.57;;
57947;SDS011;43754;56.992;24.292;2023-07-24T06:14:50;6.22;;;3.75;;
57947;SDS011;43754;56.992;24.292;2023-07-24T06:17:23;4.97;;;4.00;;
57947;SDS011;43754;56.992;24.292;2023-07-24T06:19:55;6.85;;;4.65;;
57947;SDS011;43754;56.992;24.292;2023-07-24T06:22:28;8.02;;;5.13;;
57947;SDS011;43754;56.992;24.292;2023-07-24T06:25:00;4.75;;;4.30;;
57947;SDS011;43754;56.992;24.292;2023-07-24T06:27:32;7.20;;;4.95;;
57947;SDS011;43754;56.992;24.292;2023-07-24T06:30:05;8.38;;;6.75;;
57947;SDS011;43754;56.992;24.292;2023-07-24T06:32:48;7.70;;;6.00;;
57947;SDS011;43754;56.992;24.292;2023-07-24T06:35:20;8.95;;;6.30;;
57947;SDS011;43754;56.992;24.292;2023-07-24T06:37:52;8.95;;;6.07;;
57947;SDS011;43754;56.992;24.292;2023-07-24T06:40:24;7.30;;;5.70;;
57947;SDS011;43754;56.992;24.292;2023-07-24T06:42:56;14.68;;;10.25;;
57947;SDS011;43754;56.992;24.292;2023-07-24T06:45:28;6.78;;;5.80;;
57947;SDS011;43754;56.992;24.292;2023-07-24T06:48:02;16.75;;;10.07;;
57947;SDS011;43754;56.992;24.292;2023-07-24T06:50:34;13.70;;;7.93;;
57947;SDS011;43754;56.992;24.292;2023-07-24T06:53:06;7.38;;;6.07;;
57947;SDS011;43754;56.992;24.292;2023-07-24T06:55:38;13.48;;;8.40;;
57947;SDS011;43754;56.992;24.292;2023-07-24T06:58:10;10.50;;;7.07;;
57947;SDS011;43754;56.992;24.292;2023-07-24T07:00:42;10.95;;;7.03;;
57947;SDS011;43754;56.992;24.292;2023-07-24T07:03:16;13.30;;;9.07;;
57947;SDS011;43754;56.992;24.292;2023-07-24T07:05:48;11.55;;;7.20;;
57947;SDS011;43754;56.992;24.292;2023-07-24T07:08:20;10.43;;;7.80;;
57947;SDS011;43754;56.992;24.292;2023-07-24T07:10:54;10.88;;;6.68;;
57947;SDS011;43754;56.992;24.292;2023-07-24T07:13:27;8.40;;;5.82;;
57947;SDS011;43754;56.992;24.292;2023-07-24T07:15:59;12.60;;;7.28;;
57947;SDS011;43754;56.992;24.292;2023-07-24T07:18:33;9.82;;;6.78;;
57947;SDS011;43754;56.992;24.292;2023-07-24T07:21:05;8.98;;;6.25;;
57947;SDS011;43754;56.992;24.292;2023-07-24T07:23:37;9.95;;;6.13;;
57947;SDS011;43754;56.992;24.292;2023-07-24T07:26:09;8.25;;;5.85;;
57947;SDS011;43754;56.992;24.292;2023-07-24T07:28:41;10.82;;;6.10;;
57947;SDS011;43754;56.992;24.292;2023-07-24T07:31:13;8.23;;;5.50;;
57947;SDS011;43754;56.992;24.292;2023-07-24T07:33:46;14.23;;;6.40;;
57947;SDS011;43754;56.992;24.292;2023-07-24T07:36:19;7.30;;;5.35;;
57947;SDS011;43754;56.992;24.292;2023-07-24T07:38:54;11.55;;;5.55;;
57947;SDS011;43754;56.992;24.292;2023-07-24T07:41:26;8.57;;;5.57;;
57947;SDS011;43754;56.992;24.292;2023-07-24T07:43:58;12.63;;;5.50;;
57947;SDS011;43754;56.992;24.292;2023-07-24T07:46:30;12.25;;;5.57;;
57947;SDS011;43754;56.992;24.292;2023-07-24T07:49:04;12.15;;;5.10;;
57947;SDS011;43754;56.992;24.292;2023-07-24T07:51:36;81.30;;;8.98;;
57947;SDS011;43754;56.992;24.292;2023-07-24T07:54:08;9.88;;;5.35;;
57947;SDS011;43754;56.992;24.292;2023-07-24T07:56:40;34.80;;;5.72;;
57947;SDS011;43754;56.992;24.292;2023-07-24T07:59:12;6.32;;;4.30;;
57947;SDS011;43754;56.992;24.292;2023-07-24T08:01:44;24.55;;;4.85;;
57947;SDS011;43754;56.992;24.292;2023-07-24T08:04:19;38.92;;;4.72;;
57947;SDS011;43754;56.992;24.292;2023-07-24T08:06:51;27.67;;;5.53;;
57947;SDS011;43754;56.992;24.292;2023-07-24T08:09:23;46.30;;;6.13;;
57947;SDS011;43754;56.992;24.292;2023-07-24T08:11:55;9.88;;;3.88;;
57947;SDS011;43754;56.992;24.292;2023-07-24T08:14:27;54.75;;;4.20;;
57947;SDS011;43754;56.992;24.292;2023-07-24T08:16:59;15.55;;;3.00;;
57947;SDS011;43754;56.992;24.292;2023-07-24T08:19:33;7.32;;;2.80;;
57947;SDS011;43754;56.992;24.292;2023-07-24T08:22:05;27.30;;;4.22;;
57947;SDS011;43754;56.992;24.292;2023-07-24T08:24:37;8.52;;;2.90;;
57947;SDS011;43754;56.992;24.292;2023-07-24T08:27:09;7.80;;;3.53;;
57947;SDS011;43754;56.992;24.292;2023-07-24T08:29:41;10.90;;;3.00;;
57947;SDS011;43754;56.992;24.292;2023-07-24T08:32:13;15.73;;;3.90;;
57947;SDS011;43754;56.992;24.292;2023-07-24T08:34:47;5.20;;;3.00;;
57947;SDS011;43754;56.992;24.292;2023-07-24T08:37:19;6.88;;;3.28;;
57947;SDS011;43754;56.992;24.292;2023-07-24T08:39:51;17.13;;;4.38;;
57947;SDS011;43754;56.992;24.292;2023-07-24T08:42:23;15.57;;;4.03;;
57947;SDS011;43754;56.992;24.292;2023-07-24T08:44:56;9.77;;;3.97;;
57947;SDS011;43754;56.992;24.292;2023-07-24T08:47:29;11.10;;;3.60;;
57947;SDS011;43754;56.992;24.292;2023-07-24T08:50:02;5.38;;;3.05;;
57947;SDS011;43754;56.992;24.292;2023-07-24T08:52:35;12.63;;;3.17;;
57947;SDS011;43754;56.992;24.292;2023-07-24T08:55:07;11.88;;;3.33;;
57947;SDS011;43754;56.992;24.292;2023-07-24T08:57:40;9.38;;;2.47;;
57947;SDS011;43754;56.992;24.292;2023-07-24T09:00:12;6.78;;;3.13;;
57947;SDS011;43754;56.992;24.292;2023-07-24T09:02:45;12.80;;;3.60;;
57947;SDS011;43754;56.992;24.292;2023-07-24T09:05:18;13.48;;;4.15;;
57947;SDS011;43754;56.992;24.292;2023-07-24T09:07:50;6.95;;;3.65;;
57947;SDS011;43754;56.992;24.292;2023-07-24T09:10:25;12.18;;;3.88;;
57947;SDS011;43754;56.992;24.292;2023-07-24T09:12:57;5.78;;;3.20;;
57947;SDS011;43754;56.992;24.292;2023-07-24T09:15:29;6.82;;;3.03;;
57947;SDS011;43754;56.992;24.292;2023-07-24T09:18:10;7.38;;;3.85;;
57947;SDS011;43754;56.992;24.292;2023-07-24T09:20:44;15.45;;;4.35;;
57947;SDS011;43754;56.992;24.292;2023-07-24T09:23:25;7.50;;;3.45;;
57947;SDS011;43754;56.992;24.292;2023-07-24T09:25:58;9.88;;;4.18;;
57947;SDS011;43754;56.992;24.292;2023-07-24T09:28:30;6.22;;;4.28;;
57947;SDS011;43754;56.992;24.292;2023-07-24T09:31:02;6.97;;;3.13;;
57947;SDS011;43754;56.992;24.292;2023-07-24T09:33:36;7.25;;;3.47;;
57947;SDS011;43754;56.992;24.292;2023-07-24T09:36:10;8.52;;;3.90;;
57947;SDS011;43754;56.992;24.292;2023-07-24T09:38:43;12.65;;;3.42;;
57947;SDS011;43754;56.992;24.292;2023-07-24T09:41:15;6.63;;;3.92;;
57947;SDS011;43754;56.992;24.292;2023-07-24T09:43:47;4.72;;;3.15;;
57947;SDS011;43754;56.992;24.292;2023-07-24T09:46:19;9.70;;;4.63;;
57947;SDS011;43754;56.992;24.292;2023-07-24T09:48:51;7.97;;;4.18;;
57947;SDS011;43754;56.992;24.292;2023-07-24T09:51:29;8.00;;;4.28;;
57947;SDS011;43754;56.992;24.292;2023-07-24T09:54:06;6.43;;;4.15;;
57947;SDS011;43754;56.992;24.292;2023-07-24T09:56:46;8.50;;;4.85;;
57947;SDS011;43754;56.992;24.292;2023-07-24T09:59:34;11.25;;;5.00;;
57947;SDS011;43754;56.992;24.292;2023-07-24T10:02:06;9.95;;;4.55;;
57947;SDS011;43754;56.992;24.292;2023-07-24T10:04:43;9.82;;;4.10;;
57947;SDS011;43754;56.992;24.292;2023-07-24T10:07:18;6.45;;;4.75;;
57947;SDS011;43754;56.992;24.292;2023-07-24T10:09:54;8.50;;;4.40;;
57947;SDS011;43754;56.992;24.292;2023-07-24T10:12:26;6.35;;;4.57;;
57947;SDS011;43754;56.992;24.292;2023-07-24T10:14:59;15.07;;;4.68;;
57947;SDS011;43754;56.992;24.292;2023-07-24T10:17:35;7.07;;;4.68;;
57947;SDS011;43754;56.992;24.292;2023-07-24T10:20:09;7.80;;;4.35;;
57947;SDS011;43754;56.992;24.292;2023-07-24T10:22:44;6.13;;;3.72;;
57947;SDS011;43754;56.992;24.292;2023-07-24T10:25:17;9.73;;;4.28;;
57947;SDS011;43754;56.992;24.292;2023-07-24T10:27:49;8.77;;;4.55;;
57947;SDS011;43754;56.992;24.292;2023-07-24T10:30:27;7.82;;;3.88;;
57947;SDS011;43754;56.992;24.292;2023-07-24T10:33:06;8.95;;;3.72;;
57947;SDS011;43754;56.992;24.292;2023-07-24T10:35:41;9.20;;;3.75;;
57947;SDS011;43754;56.992;24.292;2023-07-24T10:38:16;9.90;;;4.38;;
57947;SDS011;43754;56.992;24.292;2023-07-24T10:40:48;4.70;;;4.03;;
57947;SDS011;43754;56.992;24.292;2023-07-24T10:43:43;12.18;;;5.40;;
57947;SDS011;43754;56.992;24.292;2023-07-24T10:46:19;13.20;;;7.75;;
57947;SDS011;43754;56.992;24.292;2023-07-24T10:48:52;14.07;;;5.60;;
57947;SDS011;43754;56.992;24.292;2023-07-24T10:51:24;17.00;;;5.75;;
57947;SDS011;43754;56.992;24.292;2023-07-24T10:53:58;21.98;;;5.57;;
57947;SDS011;43754;56.992;24.292;2023-07-24T10:56:30;8.23;;;5.57;;
57947;SDS011;43754;56.992;24.292;2023-07-24T10:59:02;13.52;;;5.78;;
57947;SDS011;43754;56.992;24.292;2023-07-24T11:01:35;15.63;;;5.40;;
57947;SDS011;43754;56.992;24.292;2023-07-24T11:04:07;9.73;;;4.82;;
57947;SDS011;43754;56.992;24.292;2023-07-24T11:06:41;8.30;;;4.95;;
57947;SDS011;43754;56.992;24.292;2023-07-24T11:09:14;11.48;;;5.18;;
57947;SDS011;43754;56.992;24.292;2023-07-24T11:11:46;8.43;;;5.18;;
57947;SDS011;43754;56.992;24.292;2023-07-24T11:14:18;7.30;;;5.20;;
57947;SDS011;43754;56.992;24.292;2023-07-24T11:16:50;16.17;;;6.78;;
57947;SDS011;43754;56.992;24.292;2023-07-24T11:19:22;10.55;;;5.43;;
57947;SDS011;43754;56.992;24.292;2023-07-24T11:21:55;17.83;;;5.57;;
57947;SDS011;43754;56.992;24.292;2023-07-24T11:24:28;12.15;;;6.05;;
57947;SDS011;43754;56.992;24.292;2023-07-24T11:27:00;16.60;;;5.65;;
57947;SDS011;43754;56.992;24.292;2023-07-24T11:29:40;11.43;;;5.15;;
57947;SDS011;43754;56.992;24.292;2023-07-24T11:32:12;9.93;;;4.88;;
57947;SDS011;43754;56.992;24.292;2023-07-24T11:34:48;6.15;;;4.60;;
57947;SDS011;43754;56.992;24.292;2023-07-24T11:37:21;11.85;;;4.55;;
57947;SDS011;43754;56.992;24.292;2023-07-24T11:39:58;9.07;;;5.03;;
57947;SDS011;43754;56.992;24.292;2023-07-24T11:42:39;9.02;;;5.28;;
57947;SDS011;43754;56.992;24.292;2023-07-24T11:45:13;5.80;;;4.22;;
57947;SDS011;43754;56.992;24.292;2023-07-24T11:47:47;8.48;;;4.55;;
57947;SDS011;43754;56.992;24.292;2023-07-24T11:50:20;11.07;;;4.38;;
57947;SDS011;43754;56.992;24.292;2023-07-24T11:52:53;7.88;;;4.85;;
57947;SDS011;43754;56.992;24.292;2023-07-24T11:55:31;10.45;;;5.35;;
57947;SDS011;43754;56.992;24.292;2023-07-24T11:58:03;6.88;;;4.57;;
57947;SDS011;43754;56.992;24.292;2023-07-24T12:00:35;12.48;;;5.10;;
57947;SDS011;43754;56.992;24.292;2023-07-24T12:03:08;8.18;;;3.95;;
57947;SDS011;43754;56.992;24.292;2023-07-24T12:05:41;9.52;;;4.20;;
57947;SDS011;43754;56.992;24.292;2023-07-24T12:08:14;10.90;;;4.40;;
57947;SDS011;43754;56.992;24.292;2023-07-24T12:10:48;6.10;;;4.40;;
57947;SDS011;43754;56.992;24.292;2023-07-24T12:13:20;7.15;;;3.85;;
57947;SDS011;43754;56.992;24.292;2023-07-24T12:15:52;7.65;;;4.35;;
57947;SDS011;43754;56.992;24.292;2023-07-24T12:18:27;4.28;;;3.88;;
57947;SDS011;43754;56.992;24.292;2023-07-24T12:20:59;5.05;;;3.97;;
57947;SDS011;43754;56.992;24.292;2023-07-24T12:23:31;4.80;;;3.53;;
57947;SDS011;43754;56.992;24.292;2023-07-24T12:26:04;3.40;;;2.70;;
57947;SDS011;43754;56.992;24.292;2023-07-24T12:28:36;3.60;;;3.00;;
57947;SDS011;43754;56.992;24.292;2023-07-24T12:31:08;3.55;;;2.72;;
57947;SDS011;43754;56.992;24.292;2023-07-24T12:33:40;7.18;;;3.28;;
57947;SDS011;43754;56.992;24.292;2023-07-24T12:36:12;3.08;;;2.78;;
57947;SDS011;43754;56.992;24.292;2023-07-24T12:38:44;3.28;;;2.97;;
57947;SDS011;43754;56.992;24.292;2023-07-24T12:41:20;2.72;;;2.40;;
57947;SDS011;43754;56.992;24.292;2023-07-24T12:43:52;5.07;;;2.67;;
57947;SDS011;43754;56.992;24.292;2023-07-24T12:46:24;2.67;;;2.08;;
57947;SDS011;43754;56.992;24.292;2023-07-24T12:48:56;2.63;;;2.40;;
57947;SDS011;43754;56.992;24.292;2023-07-24T12:51:28;4.88;;;2.92;;
57947;SDS011;43754;56.992;24.292;2023-07-24T12:54:01;4.13;;;2.30;;
57947;SDS011;43754;56.992;24.292;2023-07-24T12:56:54;4.28;;;2.30;;
57947;SDS011;43754;56.992;24.292;2023-07-24T12:59:26;2.70;;;2.00;;
57947;SDS011;43754;56.992;24.292;2023-07-24T13:01:59;3.72;;;2.60;;
57947;SDS011;43754;56.992;24.292;2023-07-24T13:04:31;4.22;;;2.60;;
57947;SDS011;43754;56.992;24.292;2023-07-24T13:07:03;3.75;;;2.78;;
57947;SDS011;43754;56.992;24.292;2023-07-24T13:09:36;3.92;;;2.17;;
57947;SDS011;43754;56.992;24.292;2023-07-24T13:12:10;3.10;;;2.45;;
57947;SDS011;43754;56.992;24.292;2023-07-24T13:14:42;3.83;;;2.70;;
57947;SDS011;43754;56.992;24.292;2023-07-24T13:17:14;5.25;;;2.58;;
57947;SDS011;43754;56.992;24.292;2023-07-24T13:19:46;6.75;;;2.60;;
57947;SDS011;43754;56.992;24.292;2023-07-24T13:22:18;3.25;;;2.28;;
57947;SDS011;43754;56.992;24.292;2023-07-24T13:24:50;3.95;;;2.00;;
57947;SDS011;43754;56.992;24.292;2023-07-24T13:27:24;1.83;;;1.70;;
57947;SDS011;43754;56.992;24.292;2023-07-24T13:29:56;5.95;;;2.05;;
57947;SDS011;43754;56.992;24.292;2023-07-24T13:32:28;1.85;;;1.67;;
57947;SDS011;43754;56.992;24.292;2023-07-24T13:35:01;2.78;;;1.70;;
57947;SDS011;43754;56.992;24.292;2023-07-24T13:37:33;3.00;;;1.83;;
57947;SDS011;43754;56.992;24.292;2023-07-24T13:40:06;2.90;;;1.98;;
57947;SDS011;43754;56.992;24.292;2023-07-24T13:42:40;3.92;;;2.10;;
57947;SDS011;43754;56.992;24.292;2023-07-24T13:45:12;2.72;;;2.10;;
57947;SDS011;43754;56.992;24.292;2023-07-24T13:47:44;2.75;;;2.08;;
57947;SDS011;43754;56.992;24.292;2023-07-24T13:50:16;3.13;;;2.08;;
57947;SDS011;43754;56.992;24.292;2023-07-24T13:52:48;3.70;;;2.72;;
57947;SDS011;43754;56.992;24.292;2023-07-24T13:55:20;4.18;;;2.60;;
57947;SDS011;43754;56.992;24.292;2023-07-24T13:57:54;2.33;;;1.80;;
57947;SDS011;43754;56.992;24.292;2023-07-24T14:00:26;2.58;;;1.90;;
57947;SDS011;43754;56.992;24.292;2023-07-24T14:02:58;5.90;;;2.25;;
57947;SDS011;43754;56.992;24.292;2023-07-24T14:05:30;4.97;;;2.72;;
57947;SDS011;43754;56.992;24.292;2023-07-24T14:08:02;2.75;;;2.33;;
57947;SDS011;43754;56.992;24.292;2023-07-24T14:10:35;3.60;;;1.98;;
57947;SDS011;43754;56.992;24.292;2023-07-24T14:13:08;2.40;;;2.05;;
57947;SDS011;43754;56.992;24.292;2023-07-24T14:15:41;2.28;;;2.05;;
57947;SDS011;43754;56.992;24.292;2023-07-24T14:18:13;3.42;;;2.30;;
57947;SDS011;43754;56.992;24.292;2023-07-24T14:20:45;4.72;;;1.98;;
57947;SDS011;43754;56.992;24.292;2023-07-24T14:23:18;2.85;;;2.28;;
57947;SDS011;43754;56.992;24.292;2023-07-24T14:25:50;2.20;;;1.50;;
57947;SDS011;43754;56.992;24.292;2023-07-24T14:28:24;3.75;;;1.95;;
57947;SDS011;43754;56.992;24.292;2023-07-24T14:30:56;2.08;;;1.88;;
57947;SDS011;43754;56.992;24.292;2023-07-24T14:33:28;2.15;;;1.80;;
57947;SDS011;43754;56.992;24.292;2023-07-24T14:36:00;2.97;;;1.80;;
57947;SDS011;43754;56.992;24.292;2023-07-24T14:38:32;3.22;;;2.08;;
57947;SDS011;43754;56.992;24.292;2023-07-24T14:41:04;4.57;;;1.90;;
57947;SDS011;43754;56.992;24.292;2023-07-24T14:43:37;2.50;;;1.95;;
57947;SDS011;43754;56.992;24.292;2023-07-24T14:46:09;3.67;;;2.50;;
57947;SDS011;43754;56.992;24.292;2023-07-24T14:48:41;2.88;;;2.20;;
57947;SDS011;43754;56.992;24.292;2023-07-24T14:51:13;2.75;;;2.30;;
57947;SDS011;43754;56.992;24.292;2023-07-24T14:53:45;5.57;;;2.90;;
57947;SDS011;43754;56.992;24.292;2023-07-24T14:56:17;5.43;;;2.67;;
57947;SDS011;43754;56.992;24.292;2023-07-24T14:58:52;4.82;;;2.50;;
57947;SDS011;43754;56.992;24.292;2023-07-24T15:01:24;3.58;;;2.63;;
57947;SDS011;43754;56.992;24.292;2023-07-24T15:04:00;4.40;;;2.55;;
57947;SDS011;43754;56.992;24.292;2023-07-24T15:06:32;2.58;;;2.28;;
57947;SDS011;43754;56.992;24.292;2023-07-24T15:09:04;3.67;;;2.53;;